sensor_id;sensor_type;location;lat;lon;timestamp;pressure;altitude;pressure_sealevel;temperature;humidity
31483;BME280;18103;52.246;8.052;2022-11-15T00:00:07;99877.88;;;9.25;74.49
31483;BME280;18103;52.246;8.052;2022-11-15T00:02:36;99875.13;;;9.27;74.12
31483;BME280;18103;52.246;8.052;2022-11-15T00:05:02;99874.50;;;9.23;74.43
31483;BME280;18103;52.246;8.052;2022-11-15T00:07:27;99870.44;;;9.19;74.54
31483;BME280;18103;52.246;8.052;2022-11-15T00:09:52;99855.84;;;9.15;74.65
31483;BME280;18103;52.246;8.052;2022-11-15T00:12:18;99866.75;;;9.21;74.27
31483;BME280;18103;52.246;8.052;2022-11-15T00:14:43;99869.88;;;9.15;74.53
31483;BME280;18103;52.246;8.052;2022-11-15T00:17:08;99868.16;;;9.25;74.31
31483;BME280;18103;52.246;8.052;2022-11-15T00:19:34;99872.59;;;9.25;74.36
31483;BME280;18103;52.246;8.052;2022-11-15T00:22:00;99880.63;;;9.23;74.73
31483;BME280;18103;52.246;8.052;2022-11-15T00:24:25;99870.69;;;9.27;75.08
31483;BME280;18103;52.246;8.052;2022-11-15T00:26:50;99868.91;;;9.28;76.02
31483;BME280;18103;52.246;8.052;2022-11-15T00:29:19;99862.78;;;9.27;76.71
31483;BME280;18103;52.246;8.052;2022-11-15T00:31:44;99869.66;;;9.51;76.12
31483;BME280;18103;52.246;8.052;2022-11-15T00:34:10;99870.97;;;9.45;76.86
31483;BME280;18103;52.246;8.052;2022-11-15T00:36:35;99862.81;;;9.48;77.04
31483;BME280;18103;52.246;8.052;2022-11-15T00:39:03;99861.47;;;9.54;76.97
31483;BME280;18103;52.246;8.052;2022-11-15T00:41:30;99858.16;;;9.52;77.26
31483;BME280;18103;52.246;8.052;2022-11-15T00:43:55;99855.84;;;9.58;76.90
31483;BME280;18103;52.246;8.052;2022-11-15T00:46:20;99848.53;;;9.62;77.06
31483;BME280;18103;52.246;8.052;2022-11-15T00:48:46;99841.78;;;9.69;76.52
31483;BME280;18103;52.246;8.052;2022-11-15T00:51:11;99841.47;;;9.63;76.97
31483;BME280;18103;52.246;8.052;2022-11-15T00:53:36;99848.53;;;9.62;77.09
31483;BME280;18103;52.246;8.052;2022-11-15T00:56:02;99854.38;;;9.66;76.68
31483;BME280;18103;52.246;8.052;2022-11-15T00:58:27;99856.16;;;9.65;76.59
31483;BME280;18103;52.246;8.052;2022-11-15T01:00:53;99861.69;;;9.62;76.04
31483;BME280;18103;52.246;8.052;2022-11-15T01:03:19;99844.13;;;9.51;76.01
31483;BME280;18103;52.246;8.052;2022-11-15T01:05:45;99846.13;;;9.59;75.93
31483;BME280;18103;52.246;8.052;2022-11-15T01:08:15;99842.88;;;9.67;75.90
31483;BME280;18103;52.246;8.052;2022-11-15T01:10:44;99844.59;;;9.56;76.06
31483;BME280;18103;52.246;8.052;2022-11-15T01:13:09;99844.19;;;9.61;75.76
31483;BME280;18103;52.246;8.052;2022-11-15T01:15:39;99837.63;;;9.67;75.72
31483;BME280;18103;52.246;8.052;2022-11-15T01:18:04;99832.13;;;9.58;76.04
31483;BME280;18103;52.246;8.052;2022-11-15T01:20:30;99829.94;;;9.64;76.35
31483;BME280;18103;52.246;8.052;2022-11-15T01:22:55;99819.94;;;9.79;75.63
31483;BME280;18103;52.246;8.052;2022-11-15T01:25:21;99820.69;;;9.69;76.27
31483;BME280;18103;52.246;8.052;2022-11-15T01:27:46;99817.81;;;9.72;76.46
31483;BME280;18103;52.246;8.052;2022-11-15T01:30:12;99821.28;;;9.73;76.40
31483;BME280;18103;52.246;8.052;2022-11-15T01:32:37;99814.47;;;9.70;76.77
31483;BME280;18103;52.246;8.052;2022-11-15T01:35:03;99807.72;;;9.77;76.73
31483;BME280;18103;52.246;8.052;2022-11-15T01:37:29;99803.28;;;9.78;76.85
31483;BME280;18103;52.246;8.052;2022-11-15T01:39:54;99795.69;;;9.85;76.99
31483;BME280;18103;52.246;8.052;2022-11-15T01:42:19;99803.47;;;9.86;76.67
31483;BME280;18103;52.246;8.052;2022-11-15T01:44:51;99795.75;;;9.94;76.36
31483;BME280;18103;52.246;8.052;2022-11-15T01:47:31;99793.19;;;9.83;77.16
31483;BME280;18103;52.246;8.052;2022-11-15T01:50:12;99795.38;;;9.99;76.47
31483;BME280;18103;52.246;8.052;2022-11-15T01:52:40;99790.66;;;10.03;76.63
31483;BME280;18103;52.246;8.052;2022-11-15T01:55:20;99791.88;;;9.99;76.72
31483;BME280;18103;52.246;8.052;2022-11-15T01:57:53;99793.56;;;10.00;77.18
31483;BME280;18103;52.246;8.052;2022-11-15T02:00:20;99789.63;;;9.94;77.89
31483;BME280;18103;52.246;8.052;2022-11-15T02:02:46;99782.06;;;10.01;77.49
31483;BME280;18103;52.246;8.052;2022-11-15T02:05:12;99780.38;;;10.00;77.79
31483;BME280;18103;52.246;8.052;2022-11-15T02:07:38;99777.34;;;10.04;77.69
31483;BME280;18103;52.246;8.052;2022-11-15T02:10:10;99777.91;;;10.08;77.45
31483;BME280;18103;52.246;8.052;2022-11-15T02:12:36;99777.66;;;10.11;77.51
31483;BME280;18103;52.246;8.052;2022-11-15T02:15:02;99779.56;;;9.99;78.01
31483;BME280;18103;52.246;8.052;2022-11-15T02:17:44;99770.19;;;10.16;77.45
31483;BME280;18103;52.246;8.052;2022-11-15T02:30:46;99764.50;;;10.21;78.35
31483;BME280;18103;52.246;8.052;2022-11-15T02:36:01;99758.00;;;10.25;78.87
31483;BME280;18103;52.246;8.052;2022-11-15T02:41:48;99763.00;;;10.28;78.88
31483;BME280;18103;52.246;8.052;2022-11-15T02:44:34;99765.56;;;10.39;78.66
31483;BME280;18103;52.246;8.052;2022-11-15T02:47:05;99753.66;;;10.35;78.78
31483;BME280;18103;52.246;8.052;2022-11-15T02:49:41;99755.03;;;10.39;79.08
31483;BME280;18103;52.246;8.052;2022-11-15T02:52:07;99755.47;;;10.44;79.08
31483;BME280;18103;52.246;8.052;2022-11-15T02:54:36;99748.13;;;10.48;79.07
31483;BME280;18103;52.246;8.052;2022-11-15T02:57:11;99745.34;;;10.50;79.44
31483;BME280;18103;52.246;8.052;2022-11-15T03:10:48;99742.91;;;10.77;79.36
31483;BME280;18103;52.246;8.052;2022-11-15T03:15:46;99748.44;;;10.84;79.66
31483;BME280;18103;52.246;8.052;2022-11-15T03:18:33;99747.34;;;10.87;79.68
31483;BME280;18103;52.246;8.052;2022-11-15T03:21:04;99749.97;;;10.87;79.76
31483;BME280;18103;52.246;8.052;2022-11-15T03:23:32;99757.09;;;10.96;79.78
31483;BME280;18103;52.246;8.052;2022-11-15T03:25:59;99744.03;;;11.04;79.95
31483;BME280;18103;52.246;8.052;2022-11-15T03:28:39;99741.25;;;11.06;80.19
31483;BME280;18103;52.246;8.052;2022-11-15T03:31:06;99745.56;;;11.07;80.38
31483;BME280;18103;52.246;8.052;2022-11-15T03:33:54;99744.31;;;11.11;80.72
31483;BME280;18103;52.246;8.052;2022-11-15T03:36:22;99748.34;;;11.25;80.18
31483;BME280;18103;52.246;8.052;2022-11-15T03:38:54;99743.19;;;11.23;79.87
31483;BME280;18103;52.246;8.052;2022-11-15T03:41:29;99756.13;;;11.26;79.78
31483;BME280;18103;52.246;8.052;2022-11-15T03:44:37;99751.00;;;11.25;80.08
31483;BME280;18103;52.246;8.052;2022-11-15T03:47:03;99760.31;;;11.29;80.13
31483;BME280;18103;52.246;8.052;2022-11-15T03:49:33;99749.16;;;11.35;79.70
31483;BME280;18103;52.246;8.052;2022-11-15T03:52:01;99749.84;;;11.27;80.15
31483;BME280;18103;52.246;8.052;2022-11-15T03:54:28;99751.25;;;11.41;79.87
31483;BME280;18103;52.246;8.052;2022-11-15T03:56:54;99747.78;;;11.41;80.17
31483;BME280;18103;52.246;8.052;2022-11-15T03:59:22;99751.09;;;11.43;79.97
31483;BME280;18103;52.246;8.052;2022-11-15T04:01:47;99749.31;;;11.43;79.77
31483;BME280;18103;52.246;8.052;2022-11-15T04:04:13;99748.19;;;11.46;79.69
31483;BME280;18103;52.246;8.052;2022-11-15T04:06:38;99747.34;;;11.45;79.96
31483;BME280;18103;52.246;8.052;2022-11-15T04:09:06;99740.50;;;11.53;79.79
31483;BME280;18103;52.246;8.052;2022-11-15T04:11:35;99741.66;;;11.50;79.96
31483;BME280;18103;52.246;8.052;2022-11-15T04:14:00;99742.16;;;11.63;79.45
31483;BME280;18103;52.246;8.052;2022-11-15T04:16:26;99761.78;;;11.61;79.87
31483;BME280;18103;52.246;8.052;2022-11-15T04:18:51;99743.03;;;11.54;79.99
31483;BME280;18103;52.246;8.052;2022-11-15T04:21:36;99750.38;;;11.60;80.17
31483;BME280;18103;52.246;8.052;2022-11-15T04:24:31;99743.03;;;11.64;80.14
31483;BME280;18103;52.246;8.052;2022-11-15T04:26:56;99748.53;;;11.71;79.83
31483;BME280;18103;52.246;8.052;2022-11-15T04:29:22;99742.88;;;11.66;80.29
31483;BME280;18103;52.246;8.052;2022-11-15T04:32:03;99746.50;;;11.64;80.10
31483;BME280;18103;52.246;8.052;2022-11-15T04:34:29;99737.56;;;11.75;79.76
31483;BME280;18103;52.246;8.052;2022-11-15T04:36:54;99741.06;;;11.66;80.06
31483;BME280;18103;52.246;8.052;2022-11-15T04:39:39;99737.28;;;11.69;79.99
31483;BME280;18103;52.246;8.052;2022-11-15T04:42:05;99734.50;;;11.70;80.16
31483;BME280;18103;52.246;8.052;2022-11-15T04:44:30;99743.69;;;11.66;80.00
31483;BME280;18103;52.246;8.052;2022-11-15T04:46:59;99741.47;;;11.71;79.89
31483;BME280;18103;52.246;8.052;2022-11-15T04:49:24;99738.97;;;11.70;80.04
31483;BME280;18103;52.246;8.052;2022-11-15T04:51:49;99734.81;;;11.67;80.61
31483;BME280;18103;52.246;8.052;2022-11-15T04:54:15;99736.56;;;11.76;79.94
31483;BME280;18103;52.246;8.052;2022-11-15T04:56:40;99740.09;;;11.67;80.64
31483;BME280;18103;52.246;8.052;2022-11-15T04:59:06;99739.78;;;11.80;79.92
31483;BME280;18103;52.246;8.052;2022-11-15T05:01:31;99734.59;;;11.88;79.71
31483;BME280;18103;52.246;8.052;2022-11-15T05:03:57;99733.91;;;11.76;80.21
31483;BME280;18103;52.246;8.052;2022-11-15T05:06:41;99738.66;;;11.82;80.69
31483;BME280;18103;52.246;8.052;2022-11-15T05:09:07;99738.66;;;11.82;80.55
31483;BME280;18103;52.246;8.052;2022-11-15T05:11:32;99739.03;;;11.97;79.64
31483;BME280;18103;52.246;8.052;2022-11-15T05:13:57;99736.97;;;11.81;80.52
31483;BME280;18103;52.246;8.052;2022-11-15T05:16:23;99740.44;;;11.82;80.75
31483;BME280;18103;52.246;8.052;2022-11-15T05:18:53;99737.09;;;11.90;80.45
31483;BME280;18103;52.246;8.052;2022-11-15T05:21:18;99746.97;;;11.88;80.39
31483;BME280;18103;52.246;8.052;2022-11-15T05:23:44;99739.88;;;11.98;79.93
31483;BME280;18103;52.246;8.052;2022-11-15T05:26:10;99733.63;;;11.89;80.19
31483;BME280;18103;52.246;8.052;2022-11-15T05:28:37;99732.41;;;11.84;80.63
31483;BME280;18103;52.246;8.052;2022-11-15T05:31:10;99741.00;;;11.95;80.45
31483;BME280;18103;52.246;8.052;2022-11-15T05:33:38;99731.94;;;11.88;80.51
31483;BME280;18103;52.246;8.052;2022-11-15T05:36:09;99736.81;;;11.93;80.55
31483;BME280;18103;52.246;8.052;2022-11-15T05:38:37;99731.47;;;12.12;79.52
31483;BME280;18103;52.246;8.052;2022-11-15T05:41:03;99738.78;;;11.91;80.38
31483;BME280;18103;52.246;8.052;2022-11-15T05:43:31;99733.88;;;11.96;80.21
31483;BME280;18103;52.246;8.052;2022-11-15T05:45:59;99729.34;;;11.78;81.19
31483;BME280;18103;52.246;8.052;2022-11-15T05:48:25;99739.75;;;11.90;80.25
31483;BME280;18103;52.246;8.052;2022-11-15T05:50:57;99732.44;;;11.74;81.24
31483;BME280;18103;52.246;8.052;2022-11-15T05:53:26;99739.47;;;11.83;81.14
31483;BME280;18103;52.246;8.052;2022-11-15T05:55:52;99735.31;;;11.80;81.03
31483;BME280;18103;52.246;8.052;2022-11-15T05:58:18;99732.50;;;11.82;81.24
31483;BME280;18103;52.246;8.052;2022-11-15T06:00:45;99733.41;;;11.73;81.48
31483;BME280;18103;52.246;8.052;2022-11-15T06:03:11;99730.31;;;11.77;81.31
31483;BME280;18103;52.246;8.052;2022-11-15T06:05:36;99732.38;;;11.93;80.53
31483;BME280;18103;52.246;8.052;2022-11-15T06:08:02;99732.47;;;11.92;80.54
31483;BME280;18103;52.246;8.052;2022-11-15T06:10:27;99731.41;;;11.85;81.05
31483;BME280;18103;52.246;8.052;2022-11-15T06:13:04;99734.44;;;12.00;80.22
31483;BME280;18103;52.246;8.052;2022-11-15T06:15:29;99735.41;;;11.98;80.12
31483;BME280;18103;52.246;8.052;2022-11-15T06:17:58;99733.38;;;11.82;81.28
31483;BME280;18103;52.246;8.052;2022-11-15T06:20:25;99738.22;;;11.87;81.17
31483;BME280;18103;52.246;8.052;2022-11-15T06:23:03;99736.94;;;11.91;80.87
31483;BME280;18103;52.246;8.052;2022-11-15T06:25:31;99737.91;;;11.90;80.85
31483;BME280;18103;52.246;8.052;2022-11-15T06:27:58;99733.84;;;12.06;80.27
31483;BME280;18103;52.246;8.052;2022-11-15T06:30:25;99734.44;;;11.90;81.18
31483;BME280;18103;52.246;8.052;2022-11-15T06:32:51;99733.34;;;11.92;80.81
31483;BME280;18103;52.246;8.052;2022-11-15T06:35:23;99733.63;;;11.89;80.96
31483;BME280;18103;52.246;8.052;2022-11-15T06:37:48;99740.56;;;11.90;81.14
31483;BME280;18103;52.246;8.052;2022-11-15T06:40:14;99734.88;;;11.85;81.23
31483;BME280;18103;52.246;8.052;2022-11-15T06:42:39;99749.09;;;11.94;80.88
31483;BME280;18103;52.246;8.052;2022-11-15T06:45:05;99733.88;;;11.86;81.02
31483;BME280;18103;52.246;8.052;2022-11-15T06:47:30;99734.34;;;11.72;81.94
31483;BME280;18103;52.246;8.052;2022-11-15T06:49:56;99743.69;;;11.76;81.67
31483;BME280;18103;52.246;8.052;2022-11-15T06:52:21;99747.56;;;11.72;81.90
31483;BME280;18103;52.246;8.052;2022-11-15T06:54:47;99751.59;;;11.76;81.96
31483;BME280;18103;52.246;8.052;2022-11-15T06:57:12;99748.81;;;11.77;82.12
31483;BME280;18103;52.246;8.052;2022-11-15T06:59:38;99750.91;;;11.84;81.39
31483;BME280;18103;52.246;8.052;2022-11-15T07:02:03;99751.16;;;11.80;81.64
31483;BME280;18103;52.246;8.052;2022-11-15T07:04:29;99756.56;;;11.89;81.51
31483;BME280;18103;52.246;8.052;2022-11-15T07:06:54;99763.25;;;11.93;81.60
31483;BME280;18103;52.246;8.052;2022-11-15T07:09:20;99761.56;;;11.92;81.35
31483;BME280;18103;52.246;8.052;2022-11-15T07:11:45;99763.84;;;11.96;81.25
31483;BME280;18103;52.246;8.052;2022-11-15T07:14:11;99760.59;;;11.93;81.54
31483;BME280;18103;52.246;8.052;2022-11-15T07:16:37;99764.00;;;11.95;81.53
31483;BME280;18103;52.246;8.052;2022-11-15T07:19:03;99763.41;;;11.91;81.65
31483;BME280;18103;52.246;8.052;2022-11-15T07:21:28;99770.78;;;11.97;81.33
31483;BME280;18103;52.246;8.052;2022-11-15T07:23:54;99764.22;;;12.02;80.91
31483;BME280;18103;52.246;8.052;2022-11-15T07:26:19;99778.59;;;11.99;81.28
31483;BME280;18103;52.246;8.052;2022-11-15T07:28:45;99773.53;;;12.06;80.78
31483;BME280;18103;52.246;8.052;2022-11-15T07:31:10;99768.09;;;12.07;81.03
31483;BME280;18103;52.246;8.052;2022-11-15T07:33:36;99764.09;;;12.03;81.04
31483;BME280;18103;52.246;8.052;2022-11-15T07:36:05;99776.88;;;12.08;80.92
31483;BME280;18103;52.246;8.052;2022-11-15T07:38:31;99775.06;;;12.08;80.80
31483;BME280;18103;52.246;8.052;2022-11-15T07:41:02;99775.47;;;12.13;80.51
31483;BME280;18103;52.246;8.052;2022-11-15T07:43:28;99770.84;;;12.15;80.25
31483;BME280;18103;52.246;8.052;2022-11-15T07:45:55;99776.19;;;12.06;80.66
31483;BME280;18103;52.246;8.052;2022-11-15T07:48:21;99777.03;;;12.06;80.44
31483;BME280;18103;52.246;8.052;2022-11-15T07:50:49;99783.41;;;12.13;80.40
31483;BME280;18103;52.246;8.052;2022-11-15T07:53:15;99772.81;;;12.13;80.36
31483;BME280;18103;52.246;8.052;2022-11-15T07:55:41;99765.44;;;12.07;80.70
31483;BME280;18103;52.246;8.052;2022-11-15T07:58:09;99772.28;;;12.10;80.65
31483;BME280;18103;52.246;8.052;2022-11-15T08:00:35;99768.81;;;12.09;80.92
31483;BME280;18103;52.246;8.052;2022-11-15T08:03:06;99767.69;;;12.12;80.43
31483;BME280;18103;52.246;8.052;2022-11-15T08:05:32;99769.63;;;12.10;80.78
31483;BME280;18103;52.246;8.052;2022-11-15T08:07:58;99769.75;;;12.18;80.25
31483;BME280;18103;52.246;8.052;2022-11-15T08:10:24;99767.91;;;12.28;80.00
31483;BME280;18103;52.246;8.052;2022-11-15T08:13:00;99773.09;;;12.20;80.42
31483;BME280;18103;52.246;8.052;2022-11-15T08:15:26;99769.69;;;12.28;80.03
31483;BME280;18103;52.246;8.052;2022-11-15T08:18:00;99771.66;;;12.26;80.15
31483;BME280;18103;52.246;8.052;2022-11-15T08:20:27;99769.13;;;12.34;80.05
31483;BME280;18103;52.246;8.052;2022-11-15T08:22:58;99763.13;;;12.32;80.13
31483;BME280;18103;52.246;8.052;2022-11-15T08:25:25;99766.50;;;12.34;80.25
31483;BME280;18103;52.246;8.052;2022-11-15T08:27:55;99762.69;;;12.37;79.91
31483;BME280;18103;52.246;8.052;2022-11-15T08:30:22;99768.69;;;12.39;79.72
31483;BME280;18103;52.246;8.052;2022-11-15T08:32:48;99765.34;;;12.37;80.04
31483;BME280;18103;52.246;8.052;2022-11-15T08:35:14;99767.16;;;12.36;79.84
31483;BME280;18103;52.246;8.052;2022-11-15T08:37:40;99767.13;;;12.46;79.46
31483;BME280;18103;52.246;8.052;2022-11-15T08:40:06;99772.69;;;12.43;79.90
31483;BME280;18103;52.246;8.052;2022-11-15T08:42:31;99760.28;;;12.43;79.94
31483;BME280;18103;52.246;8.052;2022-11-15T08:44:57;99766.13;;;12.47;79.80
31483;BME280;18103;52.246;8.052;2022-11-15T08:47:22;99765.69;;;12.52;79.61
31483;BME280;18103;52.246;8.052;2022-11-15T08:49:48;99764.31;;;12.47;79.86
31483;BME280;18103;52.246;8.052;2022-11-15T08:52:14;99754.84;;;12.45;79.92
31483;BME280;18103;52.246;8.052;2022-11-15T08:54:39;99756.22;;;12.49;79.88
31483;BME280;18103;52.246;8.052;2022-11-15T08:57:05;99757.22;;;12.48;79.83
31483;BME280;18103;52.246;8.052;2022-11-15T08:59:31;99751.19;;;12.56;79.93
31483;BME280;18103;52.246;8.052;2022-11-15T09:01:57;99750.59;;;12.62;79.59
31483;BME280;18103;52.246;8.052;2022-11-15T09:04:22;99762.00;;;12.62;79.63
31483;BME280;18103;52.246;8.052;2022-11-15T09:06:48;99755.28;;;12.68;79.41
31483;BME280;18103;52.246;8.052;2022-11-15T09:09:14;99756.34;;;12.75;78.92
31483;BME280;18103;52.246;8.052;2022-11-15T09:11:39;99760.59;;;12.68;79.42
31483;BME280;18103;52.246;8.052;2022-11-15T09:14:04;99759.56;;;12.79;78.81
31483;BME280;18103;52.246;8.052;2022-11-15T09:16:30;99762.63;;;12.74;79.23
31483;BME280;18103;52.246;8.052;2022-11-15T09:18:56;99757.31;;;12.74;78.79
31483;BME280;18103;52.246;8.052;2022-11-15T09:21:21;99760.38;;;12.79;78.74
31483;BME280;18103;52.246;8.052;2022-11-15T09:23:50;99751.88;;;12.76;78.72
31483;BME280;18103;52.246;8.052;2022-11-15T09:26:17;99757.00;;;12.87;78.45
31483;BME280;18103;52.246;8.052;2022-11-15T09:28:42;99758.13;;;12.84;78.25
31483;BME280;18103;52.246;8.052;2022-11-15T09:31:08;99762.13;;;12.89;78.62
31483;BME280;18103;52.246;8.052;2022-11-15T09:33:33;99751.81;;;12.86;78.17
31483;BME280;18103;52.246;8.052;2022-11-15T09:36:04;99751.38;;;12.90;77.99
31483;BME280;18103;52.246;8.052;2022-11-15T09:38:30;99769.31;;;12.96;77.75
31483;BME280;18103;52.246;8.052;2022-11-15T09:48:51;99764.19;;;13.13;77.00
31483;BME280;18103;52.246;8.052;2022-11-15T09:51:34;99765.22;;;13.20;76.62
31483;BME280;18103;52.246;8.052;2022-11-15T09:56:38;99758.88;;;13.31;75.91
31483;BME280;18103;52.246;8.052;2022-11-15T09:59:27;99760.38;;;13.33;75.15
31483;BME280;18103;52.246;8.052;2022-11-15T10:04:38;99748.88;;;13.43;74.14
31483;BME280;18103;52.246;8.052;2022-11-15T10:07:21;99752.72;;;13.48;74.03
31483;BME280;18103;52.246;8.052;2022-11-15T10:09:51;99747.88;;;13.62;73.70
31483;BME280;18103;52.246;8.052;2022-11-15T10:12:18;99742.09;;;13.66;73.19
31483;BME280;18103;52.246;8.052;2022-11-15T10:14:48;99737.59;;;13.59;72.65
31483;BME280;18103;52.246;8.052;2022-11-15T10:17:43;99739.00;;;13.71;71.60
31483;BME280;18103;52.246;8.052;2022-11-15T10:20:30;99736.03;;;13.74;71.14
31483;BME280;18103;52.246;8.052;2022-11-15T10:23:05;99737.66;;;13.75;71.70
31483;BME280;18103;52.246;8.052;2022-11-15T10:25:33;99726.44;;;13.81;71.33
31483;BME280;18103;52.246;8.052;2022-11-15T10:28:11;99723.25;;;13.78;69.78
31483;BME280;18103;52.246;8.052;2022-11-15T10:30:46;99716.88;;;13.89;70.29
31483;BME280;18103;52.246;8.052;2022-11-15T10:46:33;99705.84;;;14.10;68.37
31483;BME280;18103;52.246;8.052;2022-11-15T10:49:16;99712.13;;;14.00;68.15
31483;BME280;18103;52.246;8.052;2022-11-15T10:51:47;99701.53;;;14.09;67.85
31483;BME280;18103;52.246;8.052;2022-11-15T10:54:20;99704.72;;;14.12;67.35
31483;BME280;18103;52.246;8.052;2022-11-15T10:56:51;99690.41;;;14.05;66.94
31483;BME280;18103;52.246;8.052;2022-11-15T10:59:25;99696.72;;;14.04;66.64
31483;BME280;18103;52.246;8.052;2022-11-15T11:01:51;99690.41;;;14.05;66.94
31483;BME280;18103;52.246;8.052;2022-11-15T11:04:17;99683.41;;;13.96;66.43
31483;BME280;18103;52.246;8.052;2022-11-15T11:09:36;99696.91;;;14.11;65.30
31483;BME280;18103;52.246;8.052;2022-11-15T11:12:10;99678.03;;;14.22;64.89
31483;BME280;18103;52.246;8.052;2022-11-15T11:14:38;99685.19;;;14.22;65.48
31483;BME280;18103;52.246;8.052;2022-11-15T11:22:13;99675.63;;;14.45;65.14
31483;BME280;18103;52.246;8.052;2022-11-15T11:25:03;99663.53;;;14.59;63.58
31483;BME280;18103;52.246;8.052;2022-11-15T11:27:59;99654.25;;;14.55;64.39
31483;BME280;18103;52.246;8.052;2022-11-15T11:36:21;99644.16;;;14.83;62.95
31483;BME280;18103;52.246;8.052;2022-11-15T11:38:50;99647.63;;;14.92;63.03
31483;BME280;18103;52.246;8.052;2022-11-15T11:44:00;99628.19;;;15.08;62.14
31483;BME280;18103;52.246;8.052;2022-11-15T11:55:20;99612.06;;;15.18;60.04
31483;BME280;18103;52.246;8.052;2022-11-15T12:00:28;99603.09;;;15.19;59.49
31483;BME280;18103;52.246;8.052;2022-11-15T12:03:29;99606.91;;;15.08;59.11
31483;BME280;18103;52.246;8.052;2022-11-15T12:06:02;99605.91;;;15.26;58.92
31483;BME280;18103;52.246;8.052;2022-11-15T12:16:51;99601.44;;;15.18;57.04
31483;BME280;18103;52.246;8.052;2022-11-15T12:19:17;99603.88;;;15.44;56.60
31483;BME280;18103;52.246;8.052;2022-11-15T12:22:11;99598.09;;;15.24;55.95
31483;BME280;18103;52.246;8.052;2022-11-15T12:24:43;99588.00;;;15.11;56.78
31483;BME280;18103;52.246;8.052;2022-11-15T12:27:44;99596.03;;;15.51;57.01
31483;BME280;18103;52.246;8.052;2022-11-15T12:30:14;99589.75;;;15.44;56.84
31483;BME280;18103;52.246;8.052;2022-11-15T12:32:50;99586.94;;;15.29;57.23
31483;BME280;18103;52.246;8.052;2022-11-15T12:35:39;99585.53;;;15.66;57.16
31483;BME280;18103;52.246;8.052;2022-11-15T12:38:09;99583.13;;;15.39;56.96
31483;BME280;18103;52.246;8.052;2022-11-15T12:41:12;99577.63;;;15.33;56.78
31483;BME280;18103;52.246;8.052;2022-11-15T12:43:39;99585.00;;;15.14;56.08
31483;BME280;18103;52.246;8.052;2022-11-15T12:46:08;99579.66;;;15.22;55.66
31483;BME280;18103;52.246;8.052;2022-11-15T12:51:02;99581.06;;;15.50;55.82
31483;BME280;18103;52.246;8.052;2022-11-15T12:53:30;99572.97;;;15.43;55.70
31483;BME280;18103;52.246;8.052;2022-11-15T13:07:04;99552.28;;;15.62;55.53
31483;BME280;18103;52.246;8.052;2022-11-15T13:19:47;99548.41;;;15.72;56.12
31483;BME280;18103;52.246;8.052;2022-11-15T13:22:13;99541.53;;;15.86;56.23
31483;BME280;18103;52.246;8.052;2022-11-15T13:24:59;99536.94;;;15.32;56.90
31483;BME280;18103;52.246;8.052;2022-11-15T13:27:26;99544.75;;;15.34;57.05
31483;BME280;18103;52.246;8.052;2022-11-15T13:29:52;99542.66;;;15.52;56.50
31483;BME280;18103;52.246;8.052;2022-11-15T13:32:18;99548.50;;;15.48;55.30
31483;BME280;18103;52.246;8.052;2022-11-15T13:34:46;99542.25;;;15.32;56.39
31483;BME280;18103;52.246;8.052;2022-11-15T13:37:28;99539.41;;;15.42;56.30
31483;BME280;18103;52.246;8.052;2022-11-15T13:39:55;99539.09;;;15.29;56.24
31483;BME280;18103;52.246;8.052;2022-11-15T13:42:28;99534.31;;;15.24;56.61
31483;BME280;18103;52.246;8.052;2022-11-15T13:45:02;99532.44;;;15.33;56.54
31483;BME280;18103;52.246;8.052;2022-11-15T13:47:29;99534.06;;;15.42;55.93
31483;BME280;18103;52.246;8.052;2022-11-15T13:49:58;99534.50;;;15.54;56.53
31483;BME280;18103;52.246;8.052;2022-11-15T13:52:28;99533.44;;;15.32;56.76
31483;BME280;18103;52.246;8.052;2022-11-15T13:54:59;99532.38;;;15.49;56.70
31483;BME280;18103;52.246;8.052;2022-11-15T14:00:05;99516.81;;;15.38;56.90
31483;BME280;18103;52.246;8.052;2022-11-15T14:02:33;99511.69;;;15.28;57.23
31483;BME280;18103;52.246;8.052;2022-11-15T14:05:16;99495.78;;;15.12;57.09
31483;BME280;18103;52.246;8.052;2022-11-15T14:07:56;99493.06;;;15.28;57.36
31483;BME280;18103;52.246;8.052;2022-11-15T14:12:55;99496.59;;;15.20;57.16
31483;BME280;18103;52.246;8.052;2022-11-15T14:15:33;99498.13;;;15.06;57.14
31483;BME280;18103;52.246;8.052;2022-11-15T14:17:59;99493.66;;;14.99;57.14
31483;BME280;18103;52.246;8.052;2022-11-15T14:20:27;99480.78;;;14.71;57.87
31483;BME280;18103;52.246;8.052;2022-11-15T14:23:04;99483.94;;;14.75;58.02
31483;BME280;18103;52.246;8.052;2022-11-15T14:28:28;99473.78;;;14.78;57.66
31483;BME280;18103;52.246;8.052;2022-11-15T14:30:57;99475.72;;;14.93;58.00
31483;BME280;18103;52.246;8.052;2022-11-15T14:35:51;99467.66;;;14.61;58.24
31483;BME280;18103;52.246;8.052;2022-11-15T14:38:17;99461.03;;;14.65;58.38
31483;BME280;18103;52.246;8.052;2022-11-15T14:40:42;99457.38;;;14.58;58.48
31483;BME280;18103;52.246;8.052;2022-11-15T14:43:10;99465.81;;;14.53;58.65
31483;BME280;18103;52.246;8.052;2022-11-15T14:45:36;99462.84;;;14.57;58.56
31483;BME280;18103;52.246;8.052;2022-11-15T14:48:01;99468.16;;;14.48;58.52
31483;BME280;18103;52.246;8.052;2022-11-15T14:50:27;99467.53;;;14.22;59.22
31483;BME280;18103;52.246;8.052;2022-11-15T14:52:53;99460.22;;;14.15;59.33
31483;BME280;18103;52.246;8.052;2022-11-15T14:55:35;99454.91;;;14.32;59.08
31483;BME280;18103;52.246;8.052;2022-11-15T14:58:05;99450.41;;;14.41;59.10
31483;BME280;18103;52.246;8.052;2022-11-15T15:00:33;99452.41;;;14.14;59.65
31483;BME280;18103;52.246;8.052;2022-11-15T15:02:59;99453.75;;;14.26;59.54
31483;BME280;18103;52.246;8.052;2022-11-15T15:07:56;99449.13;;;14.20;58.92
31483;BME280;18103;52.246;8.052;2022-11-15T15:10:22;99446.75;;;14.09;59.41
31483;BME280;18103;52.246;8.052;2022-11-15T15:12:48;99446.28;;;13.97;59.28
31483;BME280;18103;52.246;8.052;2022-11-15T15:15:23;99448.75;;;13.90;58.75
31483;BME280;18103;52.246;8.052;2022-11-15T15:17:49;99444.13;;;13.84;58.93
31483;BME280;18103;52.246;8.052;2022-11-15T15:20:15;99433.84;;;13.81;59.15
31483;BME280;18103;52.246;8.052;2022-11-15T15:22:41;99436.63;;;13.88;58.95